Time;durP1;ratioP1;P1;durP2;ratioP2;P2;SDS_P1;SDS_P2;PMS_P1;PMS_P2;Temp;Humidity;BMP_temperature;BMP_pressure;BME280_temperature;BME280_humidity;BME280_pressure;Samples;Min_cycle;Max_cycle;Signal;HPM_P1;HPM_P2
2021/11/05 00:01:05;;;;;;;5.38;2.05;;;;;;;;;;5096579;28;20032;-79
2021/11/05 00:03:31;;;;;;;0.20;0.20;;;;;;;;;;5096398;28;20025;-79
2021/11/05 00:05:56;;;;;;;1.08;1.05;;;;;;;;;;5096072;28;20136;-79
2021/11/05 00:08:23;;;;;;;0.30;0.30;;;;;;;;;;5096536;28;20075;-79
2021/11/05 00:10:49;;;;;;;0.10;0.10;;;;;;;;;;5096340;28;20048;-79
2021/11/05 00:13:14;;;;;;;0.20;0.20;;;;;;;;;;5096012;28;20067;-79
2021/11/05 00:15:39;;;;;;;0.10;0.10;;;;;;;;;;5096232;28;20556;-80
2021/11/05 00:18:04;;;;;;;0.43;0.43;;;;;;;;;;5095838;28;20013;-79
2021/11/05 00:20:30;;;;;;;0.10;0.10;;;;;;;;;;5096140;28;20115;-79
2021/11/05 00:22:56;;;;;;;0.30;0.30;;;;;;;;;;5095987;28;20119;-79
2021/11/05 00:25:21;;;;;;;0.52;0.52;;;;;;;;;;5096042;28;20016;-79
2021/11/05 00:27:47;;;;;;;0.10;0.10;;;;;;;;;;5095673;28;20387;-79
2021/11/05 00:30:13;;;;;;;0.10;0.10;;;;;;;;;;5095906;28;20032;-79
2021/11/05 00:32:39;;;;;;;10.13;3.58;;;;;;;;;;5095814;28;20372;-79
2021/11/05 00:35:05;;;;;;;0.43;0.43;;;;;;;;;;5095697;28;20468;-79
2021/11/05 00:37:31;;;;;;;0.43;0.43;;;;;;;;;;5095552;28;20043;-79
2021/11/05 00:39:56;;;;;;;0.20;0.20;;;;;;;;;;5095788;28;20008;-79
2021/11/05 00:42:21;;;;;;;0.43;0.43;;;;;;;;;;5095961;28;20128;-79
2021/11/05 00:44:47;;;;;;;0.10;0.10;;;;;;;;;;5095734;28;20028;-80
2021/11/05 00:47:15;;;;;;;0.10;0.10;;;;;;;;;;5095670;28;20012;-79
2021/11/05 00:49:40;;;;;;;0.40;0.40;;;;;;;;;;5095607;28;20058;-79
2021/11/05 00:52:05;;;;;;;0.20;0.20;;;;;;;;;;5075719;28;20471;-80
2021/11/05 00:54:31;;;;;;;1.48;1.38;;;;;;;;;;5074394;28;20017;-79
2021/11/05 00:56:56;;;;;;;0.55;0.55;;;;;;;;;;5074953;28;20040;-79
2021/11/05 00:59:21;;;;;;;0.20;0.20;;;;;;;;;;5073376;28;20090;-79
2021/11/05 01:01:47;;;;;;;0.20;0.20;;;;;;;;;;5075104;28;20484;-79
2021/11/05 01:04:12;;;;;;;0.10;0.10;;;;;;;;;;5075145;28;20029;-79
2021/11/05 01:06:37;;;;;;;0.40;0.40;;;;;;;;;;5074684;28;20071;-79
2021/11/05 01:09:03;;;;;;;0.10;0.10;;;;;;;;;;5074967;28;20016;-79
2021/11/05 01:11:29;;;;;;;0.20;0.20;;;;;;;;;;5075033;28;20037;-79
2021/11/05 01:13:54;;;;;;;0.10;0.10;;;;;;;;;;5074882;28;20059;-79
2021/11/05 01:16:19;;;;;;;1.20;1.10;;;;;;;;;;5074948;28;20376;-79
2021/11/05 01:18:46;;;;;;;0.30;0.30;;;;;;;;;;5074648;28;20111;-80
2021/11/05 01:21:12;;;;;;;0.20;0.20;;;;;;;;;;5074756;28;20024;-79
2021/11/05 01:23:37;;;;;;;1.45;1.35;;;;;;;;;;5074680;28;20024;-79
2021/11/05 01:26:03;;;;;;;0.10;0.10;;;;;;;;;;5074650;28;20534;-79
2021/11/05 01:28:28;;;;;;;0.10;0.10;;;;;;;;;;5087365;28;20039;-79
2021/11/05 01:30:53;;;;;;;0.10;0.10;;;;;;;;;;5094847;28;20012;-79
2021/11/05 01:33:19;;;;;;;0.20;0.20;;;;;;;;;;5094672;28;20032;-79
2021/11/05 01:35:45;;;;;;;0.10;0.10;;;;;;;;;;5094636;28;20083;-80
2021/11/05 01:38:10;;;;;;;0.10;0.10;;;;;;;;;;5094649;28;20444;-79
2021/11/05 01:40:37;;;;;;;0.10;0.10;;;;;;;;;;5094707;28;20028;-79
2021/11/05 01:43:02;;;;;;;0.10;0.10;;;;;;;;;;5094015;28;20127;-79
2021/11/05 01:45:28;;;;;;;0.10;0.10;;;;;;;;;;5094688;28;20099;-79
2021/11/05 01:47:54;;;;;;;0.10;0.10;;;;;;;;;;5094493;28;20059;-79
2021/11/05 01:50:19;;;;;;;0.20;0.20;;;;;;;;;;5094531;28;20094;-79
2021/11/05 01:52:44;;;;;;;0.10;0.10;;;;;;;;;;5094118;28;20103;-80
2021/11/05 01:55:11;;;;;;;0.10;0.10;;;;;;;;;;5094586;28;20032;-79
2021/11/05 01:57:37;;;;;;;2.17;1.95;;;;;;;;;;5094091;28;20468;-79
2021/11/05 02:00:03;;;;;;;0.10;0.10;;;;;;;;;;5094210;28;20020;-80
2021/11/05 02:02:29;;;;;;;0.10;0.10;;;;;;;;;;5094242;28;20487;-79
2021/11/05 02:04:54;;;;;;;0.10;0.10;;;;;;;;;;5094128;28;20060;-79
2021/11/05 02:07:21;;;;;;;0.10;0.10;;;;;;;;;;5093808;28;20012;-80
2021/11/05 02:09:46;;;;;;;0.10;0.10;;;;;;;;;;5093328;28;20035;-79
2021/11/05 02:12:11;;;;;;;0.10;0.10;;;;;;;;;;5094099;28;20032;-79
2021/11/05 02:14:38;;;;;;;0.30;0.30;;;;;;;;;;5093981;28;20054;-79
2021/11/05 02:17:05;;;;;;;0.10;0.10;;;;;;;;;;5093947;28;20103;-79
2021/11/05 02:19:32;;;;;;;0.10;0.10;;;;;;;;;;5093584;28;20399;-79
2021/11/05 02:21:59;;;;;;;0.10;0.10;;;;;;;;;;5093754;28;20039;-79
2021/11/05 02:24:25;;;;;;;0.13;0.13;;;;;;;;;;5093992;28;20068;-79
2021/11/05 02:26:52;;;;;;;3.65;1.98;;;;;;;;;;5093760;28;20024;-79
2021/11/05 02:29:18;;;;;;;0.10;0.10;;;;;;;;;;5093819;28;20020;-79
2021/11/05 02:31:44;;;;;;;0.10;0.10;;;;;;;;;;5093807;28;20073;-79
2021/11/05 02:34:09;;;;;;;0.10;0.10;;;;;;;;;;5093647;28;20089;-79
2021/11/05 02:36:35;;;;;;;0.20;0.20;;;;;;;;;;5093314;28;20381;-79
2021/11/05 02:39:01;;;;;;;0.32;0.32;;;;;;;;;;5093600;28;20028;-79
2021/11/05 02:41:26;;;;;;;0.20;0.20;;;;;;;;;;5093639;28;20032;-79
2021/11/05 02:43:52;;;;;;;0.10;0.10;;;;;;;;;;5093132;28;20081;-80
2021/11/05 02:46:18;;;;;;;1.90;1.75;;;;;;;;;;5093540;28;20052;-79
2021/11/05 02:48:43;;;;;;;0.25;0.25;;;;;;;;;;5093536;28;20059;-79
2021/11/05 02:51:09;;;;;;;0.10;0.10;;;;;;;;;;5093525;28;20020;-79
2021/11/05 02:53:35;;;;;;;0.10;0.10;;;;;;;;;;5093418;28;20107;-79
2021/11/05 02:56:01;;;;;;;1.23;1.17;;;;;;;;;;5093419;28;20439;-79
2021/11/05 02:58:26;;;;;;;0.10;0.10;;;;;;;;;;5093337;28;20048;-79
2021/11/05 03:00:53;;;;;;;0.10;0.10;;;;;;;;;;5092935;28;20388;-79
2021/11/05 03:03:18;;;;;;;0.20;0.20;;;;;;;;;;5093253;28;20072;-79
2021/11/05 03:05:43;;;;;;;0.10;0.10;;;;;;;;;;5093056;28;20016;-79
2021/11/05 03:08:09;;;;;;;0.85;0.85;;;;;;;;;;5093356;28;20054;-80
2021/11/05 03:10:35;;;;;;;0.20;0.20;;;;;;;;;;5093370;28;20044;-79
2021/11/05 03:13:00;;;;;;;0.25;0.25;;;;;;;;;;5093321;28;20031;-79
2021/11/05 03:15:26;;;;;;;0.10;0.10;;;;;;;;;;5093333;28;20024;-79
2021/11/05 03:17:53;;;;;;;0.20;0.20;;;;;;;;;;5093267;28;20040;-79
2021/11/05 03:20:19;;;;;;;0.10;0.10;;;;;;;;;;5093537;28;20044;-79
2021/11/05 03:22:45;;;;;;;0.20;0.20;;;;;;;;;;5096710;28;20087;-79
2021/11/05 03:25:10;;;;;;;0.10;0.10;;;;;;;;;;5097186;28;20144;-79
2021/11/05 03:27:36;;;;;;;0.55;0.55;;;;;;;;;;5095911;28;20020;-79
2021/11/05 03:30:04;;;;;;;0.10;0.10;;;;;;;;;;5097066;28;20024;-79
2021/11/05 03:32:29;;;;;;;0.10;0.10;;;;;;;;;;5096739;28;20123;-79
2021/11/05 03:34:54;;;;;;;0.20;0.20;;;;;;;;;;5097078;28;20432;-79
2021/11/05 03:37:20;;;;;;;0.10;0.10;;;;;;;;;;5097204;28;20384;-80
2021/11/05 03:39:45;;;;;;;0.10;0.10;;;;;;;;;;5096976;28;20088;-79
2021/11/05 03:42:10;;;;;;;0.10;0.10;;;;;;;;;;5096869;28;20368;-79
2021/11/05 03:44:36;;;;;;;0.30;0.30;;;;;;;;;;5096834;28;20059;-79
2021/11/05 03:47:01;;;;;;;0.30;0.30;;;;;;;;;;5096811;28;20480;-80
2021/11/05 03:49:29;;;;;;;0.10;0.10;;;;;;;;;;5096934;28;20049;-79
2021/11/05 03:51:54;;;;;;;0.10;0.10;;;;;;;;;;5096731;28;20098;-79
2021/11/05 03:54:19;;;;;;;0.10;0.10;;;;;;;;;;5096613;28;20036;-79
2021/11/05 03:56:45;;;;;;;0.10;0.10;;;;;;;;;;5096655;28;20016;-79
2021/11/05 03:59:10;;;;;;;0.10;0.10;;;;;;;;;;5095315;28;20039;-79
2021/11/05 04:01:35;;;;;;;0.10;0.10;;;;;;;;;;5096563;28;20036;-79
2021/11/05 04:04:00;;;;;;;0.10;0.10;;;;;;;;;;5096427;28;20016;-79
2021/11/05 04:06:26;;;;;;;0.10;0.10;;;;;;;;;;5096470;28;20472;-79
2021/11/05 04:08:51;;;;;;;0.20;0.20;;;;;;;;;;5096387;28;20032;-79
2021/11/05 04:11:17;;;;;;;0.63;0.63;;;;;;;;;;5096107;28;20012;-79
2021/11/05 04:13:43;;;;;;;0.20;0.20;;;;;;;;;;5096295;28;20028;-79
2021/11/05 04:16:08;;;;;;;0.10;0.10;;;;;;;;;;5096334;28;20039;-79
2021/11/05 04:18:35;;;;;;;0.10;0.10;;;;;;;;;;5096310;28;20023;-79
2021/11/05 04:21:01;;;;;;;0.10;0.10;;;;;;;;;;5096108;28;20069;-80
2021/11/05 04:23:26;;;;;;;0.10;0.10;;;;;;;;;;5096150;28;20039;-79
2021/11/05 04:25:52;;;;;;;0.10;0.10;;;;;;;;;;5096021;28;20023;-79
2021/11/05 04:28:17;;;;;;;0.13;0.13;;;;;;;;;;5096116;28;20028;-79
2021/11/05 04:30:43;;;;;;;0.10;0.10;;;;;;;;;;5096018;28;20034;-79
2021/11/05 04:33:10;;;;;;;0.20;0.20;;;;;;;;;;5095115;28;20253;-79
2021/11/05 04:35:35;;;;;;;0.10;0.10;;;;;;;;;;5095969;28;20464;-79
2021/11/05 04:38:00;;;;;;;0.10;0.10;;;;;;;;;;5095860;28;20066;-79
2021/11/05 04:40:26;;;;;;;0.10;0.10;;;;;;;;;;5095883;28;20012;-79
2021/11/05 04:42:51;;;;;;;0.10;0.10;;;;;;;;;;5095600;28;20055;-79
2021/11/05 04:45:16;;;;;;;0.10;0.10;;;;;;;;;;5095397;28;20116;-79
2021/11/05 04:47:42;;;;;;;0.10;0.10;;;;;;;;;;5095452;28;20023;-79
2021/11/05 04:50:07;;;;;;;0.32;0.32;;;;;;;;;;5095609;28;20039;-79
2021/11/05 04:52:33;;;;;;;0.10;0.10;;;;;;;;;;5095682;28;20039;-79
2021/11/05 04:54:58;;;;;;;0.10;0.10;;;;;;;;;;5095390;28;20020;-79
2021/11/05 04:57:24;;;;;;;0.10;0.10;;;;;;;;;;5095592;28;20062;-79
2021/11/05 04:59:49;;;;;;;0.10;0.10;;;;;;;;;;5095382;28;20042;-80
2021/11/05 05:02:16;;;;;;;1.65;1.38;;;;;;;;;;5095276;28;20119;-79
2021/11/05 05:04:42;;;;;;;0.10;0.10;;;;;;;;;;5095644;28;20104;-79
2021/11/05 05:07:07;;;;;;;0.17;0.17;;;;;;;;;;5094961;28;20506;-79
2021/11/05 05:09:32;;;;;;;0.10;0.10;;;;;;;;;;5095636;28;20039;-79
2021/11/05 05:11:58;;;;;;;1.55;1.23;;;;;;;;;;5095181;28;20038;-79
2021/11/05 05:14:23;;;;;;;0.90;0.85;;;;;;;;;;5095129;28;20040;-79
2021/11/05 05:16:48;;;;;;;0.10;0.10;;;;;;;;;;5094852;28;20047;-79
2021/11/05 05:19:13;;;;;;;0.10;0.10;;;;;;;;;;5094993;28;20081;-79
2021/11/05 05:21:39;;;;;;;0.90;0.90;;;;;;;;;;5094836;28;20361;-79
2021/11/05 05:24:04;;;;;;;0.45;0.45;;;;;;;;;;5094733;28;20045;-79
2021/11/05 05:26:30;;;;;;;0.50;0.50;;;;;;;;;;5094969;28;20024;-79
2021/11/05 05:28:55;;;;;;;0.10;0.10;;;;;;;;;;5094886;28;20240;-79
2021/11/05 05:31:20;;;;;;;0.10;0.10;;;;;;;;;;5094721;28;20048;-79
2021/11/05 05:33:46;;;;;;;0.10;0.10;;;;;;;;;;5094261;28;20036;-79
2021/11/05 05:36:11;;;;;;;0.10;0.10;;;;;;;;;;5094668;28;20055;-79
2021/11/05 05:38:37;;;;;;;0.10;0.10;;;;;;;;;;5094859;28;20024;-78
2021/11/05 05:41:03;;;;;;;0.13;0.13;;;;;;;;;;5094650;28;20024;-79
2021/11/05 05:43:28;;;;;;;0.10;0.10;;;;;;;;;;5094600;28;20443;-79
2021/11/05 05:45:53;;;;;;;0.10;0.10;;;;;;;;;;5093470;28;20660;-79
2021/11/05 05:48:19;;;;;;;0.30;0.30;;;;;;;;;;5094208;28;20032;-79
2021/11/05 05:50:44;;;;;;;0.10;0.10;;;;;;;;;;5094502;28;20507;-79
2021/11/05 05:53:09;;;;;;;0.20;0.20;;;;;;;;;;5094376;28;20024;-79
2021/11/05 05:55:35;;;;;;;0.10;0.10;;;;;;;;;;5094362;28;20418;-79
2021/11/05 05:58:01;;;;;;;0.10;0.10;;;;;;;;;;5094058;28;20085;-79
2021/11/05 06:00:29;;;;;;;0.60;0.60;;;;;;;;;;5094309;28;20099;-79
2021/11/05 06:02:54;;;;;;;0.10;0.10;;;;;;;;;;5094229;28;20071;-79
2021/11/05 06:05:19;;;;;;;1.25;0.90;;;;;;;;;;5094248;28;20511;-79
2021/11/05 06:07:45;;;;;;;0.10;0.10;;;;;;;;;;5094104;28;20009;-79
2021/11/05 06:10:10;;;;;;;0.30;0.30;;;;;;;;;;5093762;28;20058;-80
2021/11/05 06:12:35;;;;;;;0.10;0.10;;;;;;;;;;5093875;28;20043;-79
2021/11/05 06:15:01;;;;;;;0.10;0.10;;;;;;;;;;5094108;28;20012;-79
2021/11/05 06:17:26;;;;;;;0.10;0.10;;;;;;;;;;5094007;28;20035;-79
2021/11/05 06:19:51;;;;;;;0.32;0.32;;;;;;;;;;5093879;28;20024;-79
2021/11/05 06:22:18;;;;;;;0.10;0.10;;;;;;;;;;5093966;28;20094;-79
2021/11/05 06:24:44;;;;;;;0.10;0.10;;;;;;;;;;5094027;28;20028;-79
2021/11/05 06:27:09;;;;;;;2.08;0.90;;;;;;;;;;5093889;28;20110;-79
2021/11/05 06:29:35;;;;;;;0.10;0.10;;;;;;;;;;5093779;28;20430;-78
2021/11/05 06:32:00;;;;;;;0.35;0.35;;;;;;;;;;5093824;28;20032;-79
2021/11/05 06:34:25;;;;;;;0.17;0.17;;;;;;;;;;5093402;28;20032;-79
2021/11/05 06:36:50;;;;;;;0.10;0.10;;;;;;;;;;5093265;28;20079;-80
2021/11/05 06:39:16;;;;;;;0.10;0.10;;;;;;;;;;5093980;28;20024;-78
2021/11/05 06:41:41;;;;;;;0.10;0.10;;;;;;;;;;5093582;28;20110;-78
2021/11/05 06:44:06;;;;;;;0.10;0.10;;;;;;;;;;5093555;28;20011;-78
2021/11/05 06:46:32;;;;;;;0.10;0.10;;;;;;;;;;5093580;28;20031;-78
2021/11/05 06:48:57;;;;;;;0.10;0.10;;;;;;;;;;5093618;28;20028;-78
2021/11/05 06:51:23;;;;;;;0.10;0.10;;;;;;;;;;5093530;28;20474;-78
2021/11/05 06:53:48;;;;;;;0.10;0.10;;;;;;;;;;5093800;28;20028;-78
2021/11/05 06:56:13;;;;;;;0.10;0.10;;;;;;;;;;5093062;28;20388;-78
2021/11/05 06:58:39;;;;;;;0.10;0.10;;;;;;;;;;5093450;28;20028;-78
2021/11/05 07:01:05;;;;;;;0.10;0.10;;;;;;;;;;5093669;28;20028;-78
2021/11/05 07:03:30;;;;;;;0.10;0.10;;;;;;;;;;5093419;28;20044;-78
2021/11/05 07:05:58;;;;;;;0.10;0.10;;;;;;;;;;5093681;28;20023;-78
2021/11/05 07:08:23;;;;;;;0.10;0.10;;;;;;;;;;5093312;28;20024;-78
2021/11/05 07:10:48;;;;;;;2.25;1.48;;;;;;;;;;5092658;28;20138;-78
2021/11/05 07:13:14;;;;;;;0.10;0.10;;;;;;;;;;5093247;28;20013;-78
2021/11/05 07:15:39;;;;;;;0.17;0.17;;;;;;;;;;5093671;28;20032;-78
2021/11/05 07:18:04;;;;;;;0.10;0.10;;;;;;;;;;5093003;28;20074;-77
2021/11/05 07:20:33;;;;;;;0.10;0.10;;;;;;;;;;5092900;28;20055;-77
2021/11/05 07:22:58;;;;;;;0.10;0.10;;;;;;;;;;5093184;28;20078;-77
2021/11/05 07:25:23;;;;;;;0.10;0.10;;;;;;;;;;5093182;28;20036;-78
2021/11/05 07:27:49;;;;;;;0.30;0.30;;;;;;;;;;5093201;28;20368;-78
2021/11/05 07:30:14;;;;;;;0.10;0.10;;;;;;;;;;5093221;28;20136;-79
2021/11/05 07:32:45;;;;;;;0.10;0.10;;;;;;;;;;5093038;28;20028;-78
2021/11/05 07:35:11;;;;;;;0.10;0.10;;;;;;;;;;5092817;28;20027;-78
2021/11/05 07:37:37;;;;;;;0.10;0.10;;;;;;;;;;5093151;28;20024;-78
2021/11/05 07:40:02;;;;;;;0.10;0.10;;;;;;;;;;5093086;28;20398;-78
2021/11/05 07:42:28;;;;;;;0.10;0.10;;;;;;;;;;5091609;28;20376;-78
2021/11/05 07:44:54;;;;;;;0.10;0.10;;;;;;;;;;5093018;28;20020;-78
2021/11/05 07:47:23;;;;;;;0.10;0.10;;;;;;;;;;5093008;28;20047;-78
2021/11/05 07:49:50;;;;;;;0.13;0.13;;;;;;;;;;5092670;28;20031;-77
2021/11/05 07:52:18;;;;;;;0.25;0.25;;;;;;;;;;5092962;28;20034;-77
2021/11/05 07:54:43;;;;;;;0.10;0.10;;;;;;;;;;5078124;28;20029;-80
2021/11/05 07:57:09;;;;;;;0.10;0.10;;;;;;;;;;5071884;28;20457;-78
2021/11/05 07:59:34;;;;;;;0.10;0.10;;;;;;;;;;5070535;28;20028;-79
2021/11/05 08:01:59;;;;;;;0.10;0.10;;;;;;;;;;5071839;28;20033;-79
2021/11/05 08:04:24;;;;;;;0.10;0.10;;;;;;;;;;5071667;28;20055;-79
2021/11/05 08:06:50;;;;;;;0.10;0.10;;;;;;;;;;5072191;28;20024;-79
2021/11/05 08:09:15;;;;;;;0.10;0.10;;;;;;;;;;5074061;28;20039;-79
2021/11/05 08:11:40;;;;;;;0.10;0.10;;;;;;;;;;5075192;28;20016;-79
2021/11/05 08:14:06;;;;;;;0.10;0.10;;;;;;;;;;5074588;28;20039;-79
2021/11/05 08:16:31;;;;;;;0.10;0.10;;;;;;;;;;5075193;28;20032;-79
2021/11/05 08:18:56;;;;;;;0.32;0.32;;;;;;;;;;5075105;28;20016;-79
2021/11/05 08:21:22;;;;;;;0.40;0.40;;;;;;;;;;5075243;28;20449;-79
2021/11/05 08:23:48;;;;;;;0.10;0.10;;;;;;;;;;5074627;28;20493;-79
2021/11/05 08:26:13;;;;;;;0.13;0.13;;;;;;;;;;5075048;28;20305;-79
2021/11/05 08:28:40;;;;;;;0.10;0.10;;;;;;;;;;5070332;28;20032;-79
2021/11/05 08:31:08;;;;;;;0.60;0.60;;;;;;;;;;5071679;28;20499;-79
2021/11/05 08:33:33;;;;;;;0.10;0.10;;;;;;;;;;5072160;28;20023;-79
2021/11/05 08:35:59;;;;;;;0.20;0.20;;;;;;;;;;5072191;28;20052;-79
2021/11/05 08:38:25;;;;;;;0.13;0.13;;;;;;;;;;5071947;28;20106;-80
2021/11/05 08:40:52;;;;;;;0.10;0.10;;;;;;;;;;5072836;28;20066;-79
2021/11/05 08:43:19;;;;;;;0.03;0.03;;;;;;;;;;5071738;28;20037;-79
2021/11/05 08:45:44;;;;;;;0.35;0.35;;;;;;;;;;5072230;28;20043;-79
2021/11/05 08:48:10;;;;;;;0.55;0.32;;;;;;;;;;5071988;28;20100;-79
2021/11/05 08:50:36;;;;;;;1.02;0.45;;;;;;;;;;5072112;28;20035;-79
2021/11/05 08:53:04;;;;;;;0.20;0.20;;;;;;;;;;5071793;28;20029;-79
2021/11/05 08:55:30;;;;;;;0.73;0.73;;;;;;;;;;5071982;28;20056;-81
2021/11/05 08:57:56;;;;;;;0.98;0.98;;;;;;;;;;5072376;28;20093;-79
2021/11/05 09:00:26;;;;;;;0.68;0.68;;;;;;;;;;5070800;28;20055;-79
2021/11/05 09:02:52;;;;;;;1.58;1.48;;;;;;;;;;5066962;28;20044;-79
2021/11/05 09:05:18;;;;;;;3.40;1.30;;;;;;;;;;5070126;28;20466;-79
2021/11/05 09:07:43;;;;;;;0.80;0.80;;;;;;;;;;5070922;28;20435;-79
2021/11/05 09:10:10;;;;;;;0.10;0.10;;;;;;;;;;5071468;28;20032;-79
2021/11/05 09:12:37;;;;;;;0.10;0.10;;;;;;;;;;5071116;28;20388;-79
2021/11/05 09:15:02;;;;;;;0.00;0.00;;;;;;;;;;5069130;28;20492;-78
2021/11/05 09:17:28;;;;;;;0.30;0.20;;;;;;;;;;5070399;28;20024;-79
2021/11/05 09:19:53;;;;;;;0.17;0.17;;;;;;;;;;5071213;28;20050;-79
2021/11/05 09:22:18;;;;;;;0.98;0.93;;;;;;;;;;5070510;28;20051;-79
2021/11/05 09:24:44;;;;;;;0.85;0.52;;;;;;;;;;5071277;28;20369;-79
2021/11/05 09:27:10;;;;;;;0.17;0.17;;;;;;;;;;5070616;28;20035;-79
2021/11/05 09:29:36;;;;;;;0.45;0.45;;;;;;;;;;5071217;28;20385;-78
2021/11/05 09:32:01;;;;;;;0.38;0.38;;;;;;;;;;5071433;28;20027;-79
2021/11/05 09:34:31;;;;;;;0.20;0.20;;;;;;;;;;5071226;28;20028;-78
2021/11/05 09:36:56;;;;;;;0.10;0.10;;;;;;;;;;5071598;28;20044;-79
2021/11/05 09:39:22;;;;;;;0.20;0.20;;;;;;;;;;5071601;28;20096;-80
2021/11/05 09:41:47;;;;;;;0.10;0.10;;;;;;;;;;5071850;28;20032;-79
2021/11/05 09:44:12;;;;;;;0.22;0.22;;;;;;;;;;5070716;28;20060;-79
2021/11/05 09:46:38;;;;;;;0.10;0.10;;;;;;;;;;5071436;28;20055;-78
2021/11/05 09:49:03;;;;;;;0.68;0.68;;;;;;;;;;5070850;28;20376;-79
2021/11/05 09:51:28;;;;;;;0.00;0.00;;;;;;;;;;5071163;28;20472;-81
2021/11/05 09:53:58;;;;;;;1.33;1.23;;;;;;;;;;5071783;28;20043;-79
2021/11/05 09:56:23;;;;;;;0.17;0.17;;;;;;;;;;5070530;28;20066;-78
2021/11/05 09:58:48;;;;;;;0.40;0.40;;;;;;;;;;5069430;28;20028;-79
2021/11/05 10:01:13;;;;;;;0.10;0.10;;;;;;;;;;5070052;28;20020;-79
2021/11/05 10:03:40;;;;;;;0.20;0.20;;;;;;;;;;5070675;28;20044;-79
2021/11/05 10:06:06;;;;;;;1.60;1.50;;;;;;;;;;5070880;28;20460;-81
2021/11/05 10:08:32;;;;;;;1.35;0.85;;;;;;;;;;5070842;28;20025;-79
2021/11/05 10:10:58;;;;;;;0.28;0.28;;;;;;;;;;5070266;28;20036;-79
2021/11/05 10:13:25;;;;;;;0.40;0.40;;;;;;;;;;5070102;28;20029;-78
2021/11/05 10:15:52;;;;;;;1.98;0.85;;;;;;;;;;5070331;28;20460;-79
2021/11/05 10:18:23;;;;;;;28.08;1.48;;;;;;;;;;5070312;28;20025;-79
2021/11/05 10:21:04;;;;;;;1.25;1.10;;;;;;;;;;5070660;28;20039;-79
2021/11/05 10:23:29;;;;;;;0.30;0.30;;;;;;;;;;5070050;28;20174;-80
2021/11/05 10:25:55;;;;;;;0.22;0.22;;;;;;;;;;5069861;28;20111;-78
2021/11/05 10:28:24;;;;;;;3.30;2.03;;;;;;;;;;5070349;28;20016;-78
2021/11/05 10:30:52;;;;;;;1.15;0.77;;;;;;;;;;5068496;28;20385;-78
2021/11/05 10:33:19;;;;;;;0.30;0.30;;;;;;;;;;5079227;28;20089;-79
2021/11/05 10:35:46;;;;;;;0.38;0.38;;;;;;;;;;5077182;28;20072;-78
2021/11/05 10:38:12;;;;;;;0.57;0.30;;;;;;;;;;5070281;28;20025;-79
2021/11/05 10:40:41;;;;;;;0.38;0.38;;;;;;;;;;5070021;28;20036;-78
2021/11/05 10:43:07;;;;;;;0.10;0.10;;;;;;;;;;5069900;28;20067;-79
2021/11/05 10:45:35;;;;;;;0.08;0.08;;;;;;;;;;5069927;28;20067;-79
2021/11/05 10:48:02;;;;;;;1.55;1.45;;;;;;;;;;5069567;28;20025;-79
2021/11/05 10:50:32;;;;;;;0.52;0.52;;;;;;;;;;5069968;28;20038;-81
2021/11/05 10:53:01;;;;;;;1.77;0.95;;;;;;;;;;5069380;28;20036;-80
2021/11/05 10:55:38;;;;;;;0.45;0.45;;;;;;;;;;5070056;28;20682;-79
2021/11/05 10:58:04;;;;;;;0.00;0.00;;;;;;;;;;5069327;28;20029;-78
2021/11/05 11:00:30;;;;;;;0.10;0.10;;;;;;;;;;5069563;28;20090;-78
2021/11/05 11:02:55;;;;;;;0.10;0.10;;;;;;;;;;5069427;28;20115;-78
2021/11/05 11:05:28;;;;;;;0.52;0.52;;;;;;;;;;5069774;28;20120;-78
2021/11/05 11:07:55;;;;;;;8.88;1.85;;;;;;;;;;5065051;28;20090;-79
2021/11/05 11:10:27;;;;;;;1.65;1.08;;;;;;;;;;5069029;28;20028;-78
2021/11/05 11:12:52;;;;;;;0.10;0.10;;;;;;;;;;5068426;28;20515;-78
2021/11/05 11:15:30;;;;;;;0.20;0.20;;;;;;;;;;5069042;28;20116;-78
2021/11/05 11:17:56;;;;;;;0.20;0.20;;;;;;;;;;5068716;28;20114;-79
2021/11/05 11:20:32;;;;;;;0.05;0.05;;;;;;;;;;5069021;28;20179;-78
2021/11/05 11:22:58;;;;;;;0.00;0.00;;;;;;;;;;5068976;28;20044;-79
2021/11/05 11:25:24;;;;;;;0.10;0.10;;;;;;;;;;5069112;28;20025;-78
2021/11/05 11:27:49;;;;;;;0.10;0.10;;;;;;;;;;5082088;28;20024;-79
2021/11/05 11:30:15;;;;;;;0.05;0.05;;;;;;;;;;5088458;28;20036;-79
2021/11/05 11:32:41;;;;;;;0.00;0.00;;;;;;;;;;5088812;28;20095;-79
2021/11/05 11:35:06;;;;;;;0.20;0.20;;;;;;;;;;5089055;28;20107;-78
2021/11/05 11:37:34;;;;;;;0.10;0.10;;;;;;;;;;5073603;28;20086;-78
2021/11/05 11:39:59;;;;;;;0.20;0.10;;;;;;;;;;5068839;28;20044;-79
2021/11/05 11:42:24;;;;;;;0.30;0.30;;;;;;;;;;5070405;28;20029;-79
2021/11/05 11:44:50;;;;;;;0.55;0.55;;;;;;;;;;5072504;28;20059;-78
2021/11/05 11:47:15;;;;;;;0.03;0.03;;;;;;;;;;5072185;28;20033;-79
2021/11/05 11:49:42;;;;;;;0.00;0.00;;;;;;;;;;5072656;28;20375;-78
2021/11/05 11:52:30;;;;;;;0.43;0.20;;;;;;;;;;5074502;28;20039;-79
2021/11/05 11:54:58;;;;;;;0.00;0.00;;;;;;;;;;5075096;28;20028;-78
2021/11/05 11:57:23;;;;;;;0.17;0.17;;;;;;;;;;5074884;28;20104;-79
2021/11/05 12:00:04;;;;;;;0.40;0.40;;;;;;;;;;5073830;28;20032;-78
2021/11/05 12:02:33;;;;;;;0.00;0.00;;;;;;;;;;5074768;28;20495;-79
2021/11/05 12:05:00;;;;;;;0.10;0.10;;;;;;;;;;5074547;28;20086;-80
2021/11/05 12:07:25;;;;;;;0.00;0.00;;;;;;;;;;5074168;28;20028;-79
2021/11/05 12:09:51;;;;;;;0.20;0.20;;;;;;;;;;5073730;28;20103;-78
2021/11/05 12:12:19;;;;;;;0.00;0.00;;;;;;;;;;5074790;28;20028;-79
2021/11/05 12:15:02;;;;;;;0.00;0.00;;;;;;;;;;5074719;28;20023;-79
2021/11/05 12:17:28;;;;;;;0.00;0.00;;;;;;;;;;5074788;28;20052;-79
2021/11/05 12:20:01;;;;;;;0.00;0.00;;;;;;;;;;5074588;28;20043;-78
2021/11/05 12:22:29;;;;;;;7.53;0.43;;;;;;;;;;5074581;28;20060;-79
2021/11/05 12:25:13;;;;;;;0.52;0.50;;;;;;;;;;5074585;28;20082;-79
2021/11/05 12:27:38;;;;;;;0.08;0.08;;;;;;;;;;5074768;28;20035;-78
2021/11/05 12:30:09;;;;;;;0.43;0.43;;;;;;;;;;5073945;28;20025;-78
2021/11/05 12:32:35;;;;;;;1.55;1.45;;;;;;;;;;5078711;28;20066;-78
2021/11/05 12:35:05;;;;;;;0.05;0.05;;;;;;;;;;5094125;28;20027;-79
2021/11/05 12:37:33;;;;;;;0.00;0.00;;;;;;;;;;5095019;28;20028;-79
2021/11/05 12:40:17;;;;;;;0.10;0.10;;;;;;;;;;5094998;28;20148;-78
2021/11/05 12:42:42;;;;;;;0.20;0.20;;;;;;;;;;5095191;28;20075;-79
2021/11/05 12:45:08;;;;;;;0.00;0.00;;;;;;;;;;5094748;28;20530;-78
2021/11/05 12:47:39;;;;;;;0.10;0.10;;;;;;;;;;5095231;28;20024;-78
2021/11/05 12:50:04;;;;;;;0.00;0.00;;;;;;;;;;5094698;28;20020;-80
2021/11/05 12:52:30;;;;;;;0.00;0.00;;;;;;;;;;5095042;28;20404;-79
2021/11/05 12:54:59;;;;;;;0.00;0.00;;;;;;;;;;5090497;28;20027;-79
2021/11/05 12:57:24;;;;;;;0.17;0.17;;;;;;;;;;5094310;28;20052;-78
2021/11/05 12:59:51;;;;;;;0.10;0.10;;;;;;;;;;5094032;28;20071;-78
2021/11/05 13:02:18;;;;;;;0.43;0.43;;;;;;;;;;5092810;28;20036;-78
2021/11/05 13:04:49;;;;;;;0.25;0.25;;;;;;;;;;5093266;28;20512;-79
2021/11/05 13:07:15;;;;;;;0.10;0.10;;;;;;;;;;5093820;28;20074;-78
2021/11/05 13:09:42;;;;;;;0.00;0.00;;;;;;;;;;5093642;28;20074;-78
2021/11/05 13:12:10;;;;;;;1.17;0.60;;;;;;;;;;5093941;28;20028;-78
2021/11/05 13:14:39;;;;;;;0.05;0.05;;;;;;;;;;5093522;28;20028;-79
2021/11/05 13:17:18;;;;;;;0.00;0.00;;;;;;;;;;5094015;28;20024;-79
2021/11/05 13:19:45;;;;;;;0.00;0.00;;;;;;;;;;5093270;28;20028;-79
2021/11/05 13:22:10;;;;;;;0.08;0.08;;;;;;;;;;5093677;28;20036;-79
2021/11/05 13:24:36;;;;;;;0.10;0.10;;;;;;;;;;5092561;28;20016;-78
2021/11/05 13:27:04;;;;;;;0.08;0.08;;;;;;;;;;5093669;28;20032;-79
2021/11/05 13:29:30;;;;;;;0.00;0.00;;;;;;;;;;5093679;28;20071;-78
2021/11/05 13:32:14;;;;;;;0.15;0.15;;;;;;;;;;5093876;28;20020;-78
2021/11/05 13:34:39;;;;;;;0.00;0.00;;;;;;;;;;5072481;28;20028;-78
2021/11/05 13:37:05;;;;;;;0.00;0.00;;;;;;;;;;5073601;28;20401;-79
2021/11/05 13:39:30;;;;;;;0.00;0.00;;;;;;;;;;5073343;28;20111;-78
2021/11/05 13:41:55;;;;;;;0.00;0.00;;;;;;;;;;5073770;28;20025;-78
2021/11/05 13:44:21;;;;;;;0.00;0.00;;;;;;;;;;5073349;28;20032;-78
2021/11/05 13:46:46;;;;;;;0.08;0.08;;;;;;;;;;5073919;28;20024;-78
2021/11/05 13:49:13;;;;;;;0.10;0.10;;;;;;;;;;5073378;28;20078;-78
2021/11/05 13:51:41;;;;;;;0.00;0.00;;;;;;;;;;5073572;28;20047;-79
2021/11/05 13:54:08;;;;;;;0.10;0.10;;;;;;;;;;5073460;28;20439;-79
2021/11/05 13:56:37;;;;;;;0.00;0.00;;;;;;;;;;5073509;28;20048;-78
2021/11/05 13:59:07;;;;;;;0.00;0.00;;;;;;;;;;5073162;28;20439;-79
2021/11/05 14:01:34;;;;;;;0.00;0.00;;;;;;;;;;5073214;28;20059;-78
2021/11/05 14:04:01;;;;;;;0.00;0.00;;;;;;;;;;5073253;28;20035;-78
2021/11/05 14:06:26;;;;;;;0.10;0.10;;;;;;;;;;5072407;28;20025;-79
2021/11/05 14:08:52;;;;;;;0.32;0.32;;;;;;;;;;5073136;28;20111;-78
2021/11/05 14:11:31;;;;;;;0.10;0.10;;;;;;;;;;5073558;28;20467;-78
2021/11/05 14:13:56;;;;;;;0.00;0.00;;;;;;;;;;5073242;28;20448;-79
2021/11/05 14:16:22;;;;;;;0.00;0.00;;;;;;;;;;5072913;28;20056;-78
2021/11/05 14:18:47;;;;;;;0.10;0.10;;;;;;;;;;5073028;28;20037;-78
2021/11/05 14:21:18;;;;;;;0.45;0.45;;;;;;;;;;5072969;28;20059;-78
2021/11/05 14:23:44;;;;;;;0.60;0.60;;;;;;;;;;5072899;28;20028;-78
2021/11/05 14:26:35;;;;;;;0.00;0.00;;;;;;;;;;5073106;28;20047;-78
2021/11/05 14:29:05;;;;;;;0.20;0.20;;;;;;;;;;5070334;28;20036;-79
2021/11/05 14:31:47;;;;;;;0.00;0.00;;;;;;;;;;5073106;28;20372;-78
2021/11/05 14:34:12;;;;;;;0.17;0.10;;;;;;;;;;5089257;28;20089;-78
2021/11/05 14:36:37;;;;;;;0.03;0.03;;;;;;;;;;5092345;28;20047;-79
2021/11/05 14:39:02;;;;;;;0.00;0.00;;;;;;;;;;5092837;28;20028;-79